Val-d'Or Airport
CYVO : now visible

Aeroporto :











RITROVATECI SU...

 
LOGIN :

Iscrizione | Disclaimer

   EN    FR    IT 

 









Sommario :    VFR   VFR Marginale   IFR   IFR Intensivo   IFR Molto Intensivo
Visibilità : 
Base nubi : 
>= 8 km
>= 3000ft
5 / 8 km
1000 / 3000 ft
1500m / 5 km
500 / 1000 ft
800 / 1500m
200 / 500 ft
< 800m
< 200 ft
Simboli :   Temporali  Nebbia  Neve Forte  Precipitazioni Forti  Vento > 20 kt






- Altitudine del aeroporto : 1107 ft
- Codice IATA : YVO


CYVO - Val-d'Or

ULTIMO METAR :
  • 060023Z 35012KT 6SM BR OVC005 M06/M07 A3009 RMK ST8 FROIN SLP217

METARs OBSOLETI :
  • 060000Z 34010KT 5SM -FZDZ OVC007 M06/M06 A3009 RMK ST8 RIME ON INDICATOR SLP216
  • 052358Z 34008KT 6SM -FZDZ OVC007 M06/M06 A3009 RMK ST8 RIME ON INDICATOR SLP216
  • 052333Z 35010KT 15SM BKN009 M06/M07 A3008 RMK SF7 SLP215
  • 052300Z 35012KT 15SM -SN OVC008 M05/M06 A3009 RMK ST8 SLP216

TAF AMD TAF CYVO
Valido dal 06 a 00 ore il 06 a 12 ore UTC


060015Z 0600/0612 34010KT P6SM OVC008
TEMPO 0600/0612 5SM -FZDZ -SN BR OVC004
PROB30 0600/0612 2SM -FZDZ BR RMK NXT FCST BY 060600Z
FIR CZUL / America del Nord



MetMap, La meteo Aeronautica in un colpo d'occhio ! - Copyright ORBIFLY Dicembre 2007 - Disclaimer

ORBIFLY MET'MAP TEAM :

Programmazione e sviluppo : Alexandra Zaïnal
Concezione : Baudouin d'Aumeries
Aiuto per la programmazione : Marc-Olivier Méhu
Supporto tecnico e logistico : Manuel Goepfert
Aiuto per la traduzione : Arnaldo La Scala

Contatto : metmap@orbifly.com




FONTI E CREDITI :

   NOAA       Earth
Advisory